sensor_id;sensor_type;location;lat;lon;timestamp;P1;durP1;ratioP1;P2;durP2;ratioP2
70049;SDS011;57391;51.306;22.680;2023-04-03T00:01:16;4.60;;;2.50;;
70049;SDS011;57391;51.306;22.680;2023-04-03T00:03:43;3.80;;;1.90;;
70049;SDS011;57391;51.306;22.680;2023-04-03T00:06:11;4.40;;;2.00;;
70049;SDS011;57391;51.306;22.680;2023-04-03T00:08:40;4.20;;;2.20;;
70049;SDS011;57391;51.306;22.680;2023-04-03T00:11:07;3.40;;;1.80;;
70049;SDS011;57391;51.306;22.680;2023-04-03T00:13:36;3.80;;;1.80;;
70049;SDS011;57391;51.306;22.680;2023-04-03T00:16:04;4.20;;;2.10;;
70049;SDS011;57391;51.306;22.680;2023-04-03T00:18:32;3.40;;;1.70;;
70049;SDS011;57391;51.306;22.680;2023-04-03T00:20:59;4.50;;;2.30;;
70049;SDS011;57391;51.306;22.680;2023-04-03T00:23:27;3.80;;;1.90;;
70049;SDS011;57391;51.306;22.680;2023-04-03T00:25:55;4.00;;;2.00;;
70049;SDS011;57391;51.306;22.680;2023-04-03T00:28:23;3.10;;;1.70;;
70049;SDS011;57391;51.306;22.680;2023-04-03T00:30:50;3.80;;;2.00;;
70049;SDS011;57391;51.306;22.680;2023-04-03T00:33:17;3.70;;;1.70;;
70049;SDS011;57391;51.306;22.680;2023-04-03T00:35:49;3.10;;;1.70;;
70049;SDS011;57391;51.306;22.680;2023-04-03T00:38:17;4.00;;;1.70;;
70049;SDS011;57391;51.306;22.680;2023-04-03T00:40:46;3.90;;;1.90;;
70049;SDS011;57391;51.306;22.680;2023-04-03T00:43:23;3.30;;;1.90;;
70049;SDS011;57391;51.306;22.680;2023-04-03T00:45:54;3.60;;;1.80;;
70049;SDS011;57391;51.306;22.680;2023-04-03T00:48:30;2.90;;;1.60;;
70049;SDS011;57391;51.306;22.680;2023-04-03T00:51:02;4.10;;;1.80;;
70049;SDS011;57391;51.306;22.680;2023-04-03T00:53:40;3.40;;;1.90;;
70049;SDS011;57391;51.306;22.680;2023-04-03T00:56:14;6.00;;;2.00;;
70049;SDS011;57391;51.306;22.680;2023-04-03T00:58:48;3.80;;;1.80;;
70049;SDS011;57391;51.306;22.680;2023-04-03T01:01:38;4.40;;;2.50;;
70049;SDS011;57391;51.306;22.680;2023-04-03T01:04:05;3.30;;;2.00;;
70049;SDS011;57391;51.306;22.680;2023-04-03T01:06:55;4.10;;;2.20;;
70049;SDS011;57391;51.306;22.680;2023-04-03T01:09:25;4.30;;;2.30;;
70049;SDS011;57391;51.306;22.680;2023-04-03T01:11:53;4.90;;;2.50;;
70049;SDS011;57391;51.306;22.680;2023-04-03T01:14:20;3.40;;;1.90;;
70049;SDS011;57391;51.306;22.680;2023-04-03T01:16:54;4.30;;;2.20;;
70049;SDS011;57391;51.306;22.680;2023-04-03T01:19:22;6.90;;;2.70;;
70049;SDS011;57391;51.306;22.680;2023-04-03T01:24:41;4.50;;;2.20;;
70049;SDS011;57391;51.306;22.680;2023-04-03T01:27:10;3.90;;;2.00;;
70049;SDS011;57391;51.306;22.680;2023-04-03T01:29:38;4.60;;;2.30;;
70049;SDS011;57391;51.306;22.680;2023-04-03T01:32:06;4.90;;;2.60;;
70049;SDS011;57391;51.306;22.680;2023-04-03T01:34:34;4.80;;;2.20;;
70049;SDS011;57391;51.306;22.680;2023-04-03T01:37:01;4.20;;;2.30;;
70049;SDS011;57391;51.306;22.680;2023-04-03T01:39:28;4.60;;;2.30;;
70049;SDS011;57391;51.306;22.680;2023-04-03T01:41:56;3.70;;;2.20;;
70049;SDS011;57391;51.306;22.680;2023-04-03T01:44:42;4.40;;;2.30;;
70049;SDS011;57391;51.306;22.680;2023-04-03T01:47:10;3.50;;;1.70;;
70049;SDS011;57391;51.306;22.680;2023-04-03T01:49:37;4.50;;;2.30;;
70049;SDS011;57391;51.306;22.680;2023-04-03T01:52:04;3.90;;;2.10;;
70049;SDS011;57391;51.306;22.680;2023-04-03T01:54:31;5.80;;;2.40;;
70049;SDS011;57391;51.306;22.680;2023-04-03T01:56:58;4.20;;;2.10;;
70049;SDS011;57391;51.306;22.680;2023-04-03T01:59:25;4.90;;;1.90;;
70049;SDS011;57391;51.306;22.680;2023-04-03T02:01:52;4.90;;;2.70;;
70049;SDS011;57391;51.306;22.680;2023-04-03T02:04:20;5.10;;;2.80;;
70049;SDS011;57391;51.306;22.680;2023-04-03T02:06:47;4.60;;;2.70;;
70049;SDS011;57391;51.306;22.680;2023-04-03T02:09:14;5.20;;;3.20;;
70049;SDS011;57391;51.306;22.680;2023-04-03T02:11:41;4.10;;;2.60;;
70049;SDS011;57391;51.306;22.680;2023-04-03T02:14:09;6.50;;;2.90;;
70049;SDS011;57391;51.306;22.680;2023-04-03T02:16:36;3.20;;;1.60;;
70049;SDS011;57391;51.306;22.680;2023-04-03T02:19:04;3.80;;;1.90;;
70049;SDS011;57391;51.306;22.680;2023-04-03T02:21:31;3.40;;;1.50;;
70049;SDS011;57391;51.306;22.680;2023-04-03T02:23:58;3.80;;;1.50;;
70049;SDS011;57391;51.306;22.680;2023-04-03T02:26:26;3.30;;;1.50;;
70049;SDS011;57391;51.306;22.680;2023-04-03T02:28:53;3.60;;;1.20;;
70049;SDS011;57391;51.306;22.680;2023-04-03T02:31:20;4.10;;;1.60;;
70049;SDS011;57391;51.306;22.680;2023-04-03T02:33:47;2.20;;;1.10;;
70049;SDS011;57391;51.306;22.680;2023-04-03T02:36:15;3.00;;;1.20;;
70049;SDS011;57391;51.306;22.680;2023-04-03T02:38:44;4.40;;;1.50;;
70049;SDS011;57391;51.306;22.680;2023-04-03T02:41:12;3.20;;;1.80;;
70049;SDS011;57391;51.306;22.680;2023-04-03T02:43:39;2.60;;;1.30;;
70049;SDS011;57391;51.306;22.680;2023-04-03T02:46:07;3.20;;;1.70;;
70049;SDS011;57391;51.306;22.680;2023-04-03T02:48:35;3.60;;;1.40;;
70049;SDS011;57391;51.306;22.680;2023-04-03T02:51:03;2.60;;;1.40;;
70049;SDS011;57391;51.306;22.680;2023-04-03T02:53:30;3.20;;;1.30;;
70049;SDS011;57391;51.306;22.680;2023-04-03T02:55:58;3.00;;;1.30;;
70049;SDS011;57391;51.306;22.680;2023-04-03T02:58:25;3.30;;;1.40;;
70049;SDS011;57391;51.306;22.680;2023-04-03T03:00:53;2.50;;;1.10;;
70049;SDS011;57391;51.306;22.680;2023-04-03T03:03:21;3.00;;;1.60;;
70049;SDS011;57391;51.306;22.680;2023-04-03T03:05:48;2.20;;;1.20;;
70049;SDS011;57391;51.306;22.680;2023-04-03T03:08:15;3.80;;;1.40;;
70049;SDS011;57391;51.306;22.680;2023-04-03T03:10:44;2.80;;;1.20;;
70049;SDS011;57391;51.306;22.680;2023-04-03T03:13:11;3.20;;;1.30;;
70049;SDS011;57391;51.306;22.680;2023-04-03T03:15:38;2.60;;;1.30;;
70049;SDS011;57391;51.306;22.680;2023-04-03T03:18:05;3.10;;;1.30;;
70049;SDS011;57391;51.306;22.680;2023-04-03T03:20:32;3.00;;;1.30;;
70049;SDS011;57391;51.306;22.680;2023-04-03T03:22:59;4.80;;;1.30;;
70049;SDS011;57391;51.306;22.680;2023-04-03T03:25:26;1.60;;;0.80;;
70049;SDS011;57391;51.306;22.680;2023-04-03T03:27:53;2.90;;;1.20;;
70049;SDS011;57391;51.306;22.680;2023-04-03T03:30:20;2.70;;;1.20;;
70049;SDS011;57391;51.306;22.680;2023-04-03T03:32:48;2.80;;;1.30;;
70049;SDS011;57391;51.306;22.680;2023-04-03T03:35:15;4.10;;;1.10;;
70049;SDS011;57391;51.306;22.680;2023-04-03T03:37:42;2.70;;;1.10;;
70049;SDS011;57391;51.306;22.680;2023-04-03T03:40:10;3.10;;;1.20;;
70049;SDS011;57391;51.306;22.680;2023-04-03T03:42:39;2.20;;;1.10;;
70049;SDS011;57391;51.306;22.680;2023-04-03T03:45:07;5.30;;;1.60;;
70049;SDS011;57391;51.306;22.680;2023-04-03T03:47:36;2.90;;;1.30;;
70049;SDS011;57391;51.306;22.680;2023-04-03T03:50:03;3.60;;;1.30;;
70049;SDS011;57391;51.306;22.680;2023-04-03T03:52:31;3.30;;;1.40;;
70049;SDS011;57391;51.306;22.680;2023-04-03T03:54:58;4.20;;;1.40;;
70049;SDS011;57391;51.306;22.680;2023-04-03T03:57:26;4.10;;;1.90;;
70049;SDS011;57391;51.306;22.680;2023-04-03T03:59:55;5.10;;;1.60;;
70049;SDS011;57391;51.306;22.680;2023-04-03T04:02:23;4.20;;;1.50;;
70049;SDS011;57391;51.306;22.680;2023-04-03T04:04:52;3.30;;;1.40;;
70049;SDS011;57391;51.306;22.680;2023-04-03T04:07:20;2.80;;;1.30;;
70049;SDS011;57391;51.306;22.680;2023-04-03T04:09:47;2.50;;;1.30;;
70049;SDS011;57391;51.306;22.680;2023-04-03T04:12:14;3.10;;;1.40;;
70049;SDS011;57391;51.306;22.680;2023-04-03T04:14:42;2.70;;;1.20;;
70049;SDS011;57391;51.306;22.680;2023-04-03T04:17:13;3.60;;;1.20;;
70049;SDS011;57391;51.306;22.680;2023-04-03T04:19:42;2.80;;;1.30;;
70049;SDS011;57391;51.306;22.680;2023-04-03T04:22:09;4.30;;;1.70;;
70049;SDS011;57391;51.306;22.680;2023-04-03T04:24:37;3.50;;;1.60;;
70049;SDS011;57391;51.306;22.680;2023-04-03T04:27:04;3.30;;;1.40;;
70049;SDS011;57391;51.306;22.680;2023-04-03T04:29:31;4.00;;;1.50;;
70049;SDS011;57391;51.306;22.680;2023-04-03T04:32:03;7.00;;;1.40;;
70049;SDS011;57391;51.306;22.680;2023-04-03T04:34:31;4.50;;;1.60;;
70049;SDS011;57391;51.306;22.680;2023-04-03T04:36:58;4.50;;;1.40;;
70049;SDS011;57391;51.306;22.680;2023-04-03T04:39:26;4.40;;;1.80;;
70049;SDS011;57391;51.306;22.680;2023-04-03T04:41:55;4.90;;;1.40;;
70049;SDS011;57391;51.306;22.680;2023-04-03T04:44:22;3.50;;;1.40;;
70049;SDS011;57391;51.306;22.680;2023-04-03T04:46:50;2.00;;;1.20;;
70049;SDS011;57391;51.306;22.680;2023-04-03T04:49:17;2.70;;;1.10;;
70049;SDS011;57391;51.306;22.680;2023-04-03T04:51:44;3.40;;;1.30;;
70049;SDS011;57391;51.306;22.680;2023-04-03T04:54:12;3.00;;;1.00;;
70049;SDS011;57391;51.306;22.680;2023-04-03T04:56:39;3.60;;;1.20;;
70049;SDS011;57391;51.306;22.680;2023-04-03T04:59:07;3.80;;;1.20;;
70049;SDS011;57391;51.306;22.680;2023-04-03T05:01:35;4.20;;;1.40;;
70049;SDS011;57391;51.306;22.680;2023-04-03T05:04:09;3.30;;;1.30;;
70049;SDS011;57391;51.306;22.680;2023-04-03T05:06:39;4.30;;;1.40;;
70049;SDS011;57391;51.306;22.680;2023-04-03T05:09:10;5.60;;;1.30;;
70049;SDS011;57391;51.306;22.680;2023-04-03T05:11:38;5.80;;;1.70;;
70049;SDS011;57391;51.306;22.680;2023-04-03T05:14:07;3.20;;;1.40;;
70049;SDS011;57391;51.306;22.680;2023-04-03T05:16:34;3.30;;;1.40;;
70049;SDS011;57391;51.306;22.680;2023-04-03T05:19:04;4.60;;;1.50;;
70049;SDS011;57391;51.306;22.680;2023-04-03T05:21:32;4.50;;;1.40;;
70049;SDS011;57391;51.306;22.680;2023-04-03T05:24:00;3.80;;;1.40;;
70049;SDS011;57391;51.306;22.680;2023-04-03T05:26:30;3.20;;;1.50;;
70049;SDS011;57391;51.306;22.680;2023-04-03T05:28:58;3.70;;;1.50;;
70049;SDS011;57391;51.306;22.680;2023-04-03T05:31:25;3.50;;;1.40;;
70049;SDS011;57391;51.306;22.680;2023-04-03T05:33:56;5.00;;;1.50;;
70049;SDS011;57391;51.306;22.680;2023-04-03T05:36:23;5.90;;;1.70;;
70049;SDS011;57391;51.306;22.680;2023-04-03T05:38:54;4.00;;;1.50;;
70049;SDS011;57391;51.306;22.680;2023-04-03T05:41:23;3.20;;;1.40;;
70049;SDS011;57391;51.306;22.680;2023-04-03T05:43:50;3.60;;;1.20;;
70049;SDS011;57391;51.306;22.680;2023-04-03T05:46:19;5.20;;;1.40;;
70049;SDS011;57391;51.306;22.680;2023-04-03T05:48:51;3.90;;;1.20;;
70049;SDS011;57391;51.306;22.680;2023-04-03T05:51:24;4.90;;;1.60;;
70049;SDS011;57391;51.306;22.680;2023-04-03T05:54:16;5.40;;;1.60;;
70049;SDS011;57391;51.306;22.680;2023-04-03T05:56:46;3.60;;;1.40;;
70049;SDS011;57391;51.306;22.680;2023-04-03T05:59:13;4.50;;;1.40;;
70049;SDS011;57391;51.306;22.680;2023-04-03T06:01:40;3.40;;;1.30;;
70049;SDS011;57391;51.306;22.680;2023-04-03T06:04:08;3.50;;;1.60;;
70049;SDS011;57391;51.306;22.680;2023-04-03T06:07:02;7.00;;;1.70;;
70049;SDS011;57391;51.306;22.680;2023-04-03T06:09:30;6.10;;;1.70;;
70049;SDS011;57391;51.306;22.680;2023-04-03T06:11:57;5.60;;;1.30;;
70049;SDS011;57391;51.306;22.680;2023-04-03T06:14:25;2.40;;;1.00;;
70049;SDS011;57391;51.306;22.680;2023-04-03T06:16:53;4.10;;;1.40;;
70049;SDS011;57391;51.306;22.680;2023-04-03T06:19:21;4.40;;;1.50;;
70049;SDS011;57391;51.306;22.680;2023-04-03T06:21:51;4.40;;;1.60;;
70049;SDS011;57391;51.306;22.680;2023-04-03T06:24:19;4.80;;;1.50;;
70049;SDS011;57391;51.306;22.680;2023-04-03T06:26:48;4.50;;;1.50;;
70049;SDS011;57391;51.306;22.680;2023-04-03T06:29:19;9.30;;;1.80;;
70049;SDS011;57391;51.306;22.680;2023-04-03T06:31:47;5.60;;;1.50;;
70049;SDS011;57391;51.306;22.680;2023-04-03T06:34:14;4.20;;;0.90;;
70049;SDS011;57391;51.306;22.680;2023-04-03T06:36:42;4.60;;;1.60;;
70049;SDS011;57391;51.306;22.680;2023-04-03T06:39:18;4.60;;;1.50;;
70049;SDS011;57391;51.306;22.680;2023-04-03T06:41:48;4.30;;;1.50;;
70049;SDS011;57391;51.306;22.680;2023-04-03T06:44:18;3.70;;;2.00;;
70049;SDS011;57391;51.306;22.680;2023-04-03T06:46:45;4.00;;;1.40;;
70049;SDS011;57391;51.306;22.680;2023-04-03T06:49:13;4.10;;;2.10;;
70049;SDS011;57391;51.306;22.680;2023-04-03T06:51:41;3.00;;;1.40;;
70049;SDS011;57391;51.306;22.680;2023-04-03T06:54:08;5.70;;;2.00;;
70049;SDS011;57391;51.306;22.680;2023-04-03T06:56:35;8.50;;;3.30;;
70049;SDS011;57391;51.306;22.680;2023-04-03T06:59:03;6.90;;;2.20;;
70049;SDS011;57391;51.306;22.680;2023-04-03T07:01:30;12.00;;;4.80;;
70049;SDS011;57391;51.306;22.680;2023-04-03T07:03:58;17.60;;;4.80;;
70049;SDS011;57391;51.306;22.680;2023-04-03T07:06:25;31.40;;;7.80;;
70049;SDS011;57391;51.306;22.680;2023-04-03T07:08:55;40.60;;;9.10;;
70049;SDS011;57391;51.306;22.680;2023-04-03T07:11:23;43.50;;;8.30;;
70049;SDS011;57391;51.306;22.680;2023-04-03T07:13:51;41.80;;;8.30;;
70049;SDS011;57391;51.306;22.680;2023-04-03T07:16:20;27.00;;;5.30;;
70049;SDS011;57391;51.306;22.680;2023-04-03T07:18:47;22.00;;;4.60;;
70049;SDS011;57391;51.306;22.680;2023-04-03T07:21:15;42.40;;;9.60;;
70049;SDS011;57391;51.306;22.680;2023-04-03T07:23:41;26.00;;;4.90;;
70049;SDS011;57391;51.306;22.680;2023-04-03T07:26:09;23.20;;;6.10;;
70049;SDS011;57391;51.306;22.680;2023-04-03T07:28:36;16.40;;;5.00;;
70049;SDS011;57391;51.306;22.680;2023-04-03T07:31:06;23.10;;;5.20;;
70049;SDS011;57391;51.306;22.680;2023-04-03T07:33:35;21.00;;;4.80;;
70049;SDS011;57391;51.306;22.680;2023-04-03T07:36:04;18.10;;;5.00;;
70049;SDS011;57391;51.306;22.680;2023-04-03T07:38:36;20.70;;;5.30;;
70049;SDS011;57391;51.306;22.680;2023-04-03T07:41:04;16.80;;;4.50;;
70049;SDS011;57391;51.306;22.680;2023-04-03T07:43:32;20.90;;;5.30;;
70049;SDS011;57391;51.306;22.680;2023-04-03T07:46:00;37.50;;;9.80;;
70049;SDS011;57391;51.306;22.680;2023-04-03T07:48:27;20.60;;;5.10;;
70049;SDS011;57391;51.306;22.680;2023-04-03T07:50:59;11.90;;;4.10;;
70049;SDS011;57391;51.306;22.680;2023-04-03T07:53:28;7.70;;;3.70;;
70049;SDS011;57391;51.306;22.680;2023-04-03T07:55:58;5.20;;;1.90;;
70049;SDS011;57391;51.306;22.680;2023-04-03T07:58:26;4.30;;;1.70;;
70049;SDS011;57391;51.306;22.680;2023-04-03T08:00:53;4.90;;;2.00;;
70049;SDS011;57391;51.306;22.680;2023-04-03T08:03:20;5.50;;;1.90;;
70049;SDS011;57391;51.306;22.680;2023-04-03T08:05:49;4.70;;;1.60;;
70049;SDS011;57391;51.306;22.680;2023-04-03T08:08:20;3.90;;;1.50;;
70049;SDS011;57391;51.306;22.680;2023-04-03T08:10:53;4.80;;;1.90;;
70049;SDS011;57391;51.306;22.680;2023-04-03T08:13:21;4.10;;;2.00;;
70049;SDS011;57391;51.306;22.680;2023-04-03T08:15:48;4.70;;;1.80;;
70049;SDS011;57391;51.306;22.680;2023-04-03T08:18:18;3.40;;;1.50;;
70049;SDS011;57391;51.306;22.680;2023-04-03T08:20:48;4.20;;;1.70;;
70049;SDS011;57391;51.306;22.680;2023-04-03T08:23:15;18.80;;;6.00;;
70049;SDS011;57391;51.306;22.680;2023-04-03T08:25:44;37.10;;;9.00;;
70049;SDS011;57391;51.306;22.680;2023-04-03T08:28:11;30.40;;;7.00;;
70049;SDS011;57391;51.306;22.680;2023-04-03T08:30:40;27.70;;;6.20;;
70049;SDS011;57391;51.306;22.680;2023-04-03T08:33:09;29.90;;;7.20;;
70049;SDS011;57391;51.306;22.680;2023-04-03T08:35:40;22.90;;;6.70;;
70049;SDS011;57391;51.306;22.680;2023-04-03T08:38:09;17.50;;;5.00;;
70049;SDS011;57391;51.306;22.680;2023-04-03T08:40:37;8.40;;;3.20;;
70049;SDS011;57391;51.306;22.680;2023-04-03T08:45:57;6.10;;;2.00;;
70049;SDS011;57391;51.306;22.680;2023-04-03T08:48:31;5.30;;;1.70;;
70049;SDS011;57391;51.306;22.680;2023-04-03T08:51:15;3.40;;;1.40;;
70049;SDS011;57391;51.306;22.680;2023-04-03T08:54:01;4.10;;;1.50;;
70049;SDS011;57391;51.306;22.680;2023-04-03T08:56:33;3.30;;;1.40;;
70049;SDS011;57391;51.306;22.680;2023-04-03T08:59:09;3.90;;;1.60;;
70049;SDS011;57391;51.306;22.680;2023-04-03T09:01:41;4.10;;;1.80;;
70049;SDS011;57391;51.306;22.680;2023-04-03T09:04:14;3.60;;;1.40;;
70049;SDS011;57391;51.306;22.680;2023-04-03T09:06:54;3.60;;;1.40;;
70049;SDS011;57391;51.306;22.680;2023-04-03T09:09:36;3.30;;;1.30;;
70049;SDS011;57391;51.306;22.680;2023-04-03T09:12:27;2.80;;;1.30;;
70049;SDS011;57391;51.306;22.680;2023-04-03T09:17:51;1.90;;;1.20;;
70049;SDS011;57391;51.306;22.680;2023-04-03T09:20:48;2.30;;;1.20;;
70049;SDS011;57391;51.306;22.680;2023-04-03T09:26:08;2.90;;;1.20;;
70049;SDS011;57391;51.306;22.680;2023-04-03T09:28:41;5.90;;;1.90;;
70049;SDS011;57391;51.306;22.680;2023-04-03T09:33:52;3.80;;;1.50;;
70049;SDS011;57391;51.306;22.680;2023-04-03T09:37:01;3.70;;;1.40;;
70049;SDS011;57391;51.306;22.680;2023-04-03T09:39:49;3.70;;;1.50;;
70049;SDS011;57391;51.306;22.680;2023-04-03T09:42:22;4.00;;;1.10;;
70049;SDS011;57391;51.306;22.680;2023-04-03T09:44:58;3.10;;;1.00;;
70049;SDS011;57391;51.306;22.680;2023-04-03T09:47:32;4.50;;;1.40;;
70049;SDS011;57391;51.306;22.680;2023-04-03T09:52:43;3.30;;;1.20;;
70049;SDS011;57391;51.306;22.680;2023-04-03T09:55:24;3.00;;;1.40;;
70049;SDS011;57391;51.306;22.680;2023-04-03T09:57:59;4.60;;;1.40;;
70049;SDS011;57391;51.306;22.680;2023-04-03T10:00:38;3.70;;;1.40;;
70049;SDS011;57391;51.306;22.680;2023-04-03T10:05:57;3.80;;;1.50;;
70049;SDS011;57391;51.306;22.680;2023-04-03T10:08:28;2.80;;;1.30;;
70049;SDS011;57391;51.306;22.680;2023-04-03T10:11:12;3.70;;;1.40;;
70049;SDS011;57391;51.306;22.680;2023-04-03T10:13:53;3.90;;;1.50;;
70049;SDS011;57391;51.306;22.680;2023-04-03T10:25:20;9.40;;;2.40;;
70049;SDS011;57391;51.306;22.680;2023-04-03T10:27:59;9.00;;;2.50;;
70049;SDS011;57391;51.306;22.680;2023-04-03T10:39:25;7.80;;;2.40;;
70049;SDS011;57391;51.306;22.680;2023-04-03T10:56:03;3.90;;;1.20;;
70049;SDS011;57391;51.306;22.680;2023-04-03T10:58:43;2.60;;;1.20;;
70049;SDS011;57391;51.306;22.680;2023-04-03T11:01:29;2.80;;;1.00;;
70049;SDS011;57391;51.306;22.680;2023-04-03T11:04:01;1.90;;;1.00;;
70049;SDS011;57391;51.306;22.680;2023-04-03T11:06:36;2.50;;;1.40;;
70049;SDS011;57391;51.306;22.680;2023-04-03T11:09:28;2.90;;;1.30;;
70049;SDS011;57391;51.306;22.680;2023-04-03T11:14:51;2.70;;;1.40;;
70049;SDS011;57391;51.306;22.680;2023-04-03T11:17:34;2.40;;;1.20;;
70049;SDS011;57391;51.306;22.680;2023-04-03T11:20:26;3.70;;;1.40;;
70049;SDS011;57391;51.306;22.680;2023-04-03T11:25:35;2.90;;;1.40;;
70049;SDS011;57391;51.306;22.680;2023-04-03T11:28:06;3.00;;;1.30;;
70049;SDS011;57391;51.306;22.680;2023-04-03T11:36:45;17.90;;;5.50;;
70049;SDS011;57391;51.306;22.680;2023-04-03T11:41:52;25.30;;;5.00;;
70049;SDS011;57391;51.306;22.680;2023-04-03T11:44:37;32.00;;;6.90;;
70049;SDS011;57391;51.306;22.680;2023-04-03T11:47:06;11.30;;;2.70;;
70049;SDS011;57391;51.306;22.680;2023-04-03T11:49:59;29.20;;;5.30;;
70049;SDS011;57391;51.306;22.680;2023-04-03T11:58:34;31.20;;;7.70;;
70049;SDS011;57391;51.306;22.680;2023-04-03T12:01:10;11.90;;;3.50;;
70049;SDS011;57391;51.306;22.680;2023-04-03T12:16:25;5.10;;;1.80;;
70049;SDS011;57391;51.306;22.680;2023-04-03T12:24:31;6.90;;;1.80;;
70049;SDS011;57391;51.306;22.680;2023-04-03T12:27:02;4.30;;;1.70;;
70049;SDS011;57391;51.306;22.680;2023-04-03T12:29:55;4.10;;;1.50;;
70049;SDS011;57391;51.306;22.680;2023-04-03T12:32:49;4.80;;;1.90;;
70049;SDS011;57391;51.306;22.680;2023-04-03T12:47:20;2.10;;;1.20;;
70049;SDS011;57391;51.306;22.680;2023-04-03T12:49:56;2.00;;;1.00;;
70049;SDS011;57391;51.306;22.680;2023-04-03T12:52:43;3.60;;;1.40;;
70049;SDS011;57391;51.306;22.680;2023-04-03T12:55:17;3.00;;;1.30;;
70049;SDS011;57391;51.306;22.680;2023-04-03T12:57:47;3.00;;;1.30;;
70049;SDS011;57391;51.306;22.680;2023-04-03T13:03:02;6.50;;;1.80;;
70049;SDS011;57391;51.306;22.680;2023-04-03T13:05:31;2.00;;;1.10;;
70049;SDS011;57391;51.306;22.680;2023-04-03T13:08:05;3.40;;;1.20;;
70049;SDS011;57391;51.306;22.680;2023-04-03T13:11:03;3.80;;;1.60;;
70049;SDS011;57391;51.306;22.680;2023-04-03T13:13:34;5.20;;;1.60;;
70049;SDS011;57391;51.306;22.680;2023-04-03T13:16:08;2.70;;;1.20;;
70049;SDS011;57391;51.306;22.680;2023-04-03T13:18:38;3.20;;;1.30;;
70049;SDS011;57391;51.306;22.680;2023-04-03T13:21:13;7.40;;;3.10;;
70049;SDS011;57391;51.306;22.680;2023-04-03T13:23:47;7.20;;;3.10;;
70049;SDS011;57391;51.306;22.680;2023-04-03T13:26:18;6.50;;;2.60;;
70049;SDS011;57391;51.306;22.680;2023-04-03T13:28:48;4.10;;;2.00;;
70049;SDS011;57391;51.306;22.680;2023-04-03T13:31:21;4.40;;;1.60;;
70049;SDS011;57391;51.306;22.680;2023-04-03T13:36:31;3.10;;;1.20;;
70049;SDS011;57391;51.306;22.680;2023-04-03T13:41:47;4.40;;;1.40;;
70049;SDS011;57391;51.306;22.680;2023-04-03T13:46:57;3.60;;;1.40;;
70049;SDS011;57391;51.306;22.680;2023-04-03T13:49:37;7.10;;;2.90;;
70049;SDS011;57391;51.306;22.680;2023-04-03T13:52:28;15.10;;;5.00;;
70049;SDS011;57391;51.306;22.680;2023-04-03T13:57:58;4.50;;;1.80;;
70049;SDS011;57391;51.306;22.680;2023-04-03T14:00:49;3.40;;;1.30;;
70049;SDS011;57391;51.306;22.680;2023-04-03T14:03:32;3.70;;;1.60;;
70049;SDS011;57391;51.306;22.680;2023-04-03T14:06:12;3.20;;;1.50;;
70049;SDS011;57391;51.306;22.680;2023-04-03T14:08:43;3.60;;;1.40;;
70049;SDS011;57391;51.306;22.680;2023-04-03T14:11:24;3.90;;;1.60;;
70049;SDS011;57391;51.306;22.680;2023-04-03T14:14:09;4.90;;;1.70;;
70049;SDS011;57391;51.306;22.680;2023-04-03T14:16:43;3.10;;;1.50;;
70049;SDS011;57391;51.306;22.680;2023-04-03T14:19:20;2.50;;;1.30;;
70049;SDS011;57391;51.306;22.680;2023-04-03T14:21:51;4.10;;;1.40;;
70049;SDS011;57391;51.306;22.680;2023-04-03T14:24:20;4.10;;;1.40;;
70049;SDS011;57391;51.306;22.680;2023-04-03T14:26:50;4.50;;;1.80;;
70049;SDS011;57391;51.306;22.680;2023-04-03T14:29:19;12.20;;;4.10;;
70049;SDS011;57391;51.306;22.680;2023-04-03T14:31:49;4.00;;;1.60;;
70049;SDS011;57391;51.306;22.680;2023-04-03T14:34:17;6.20;;;2.20;;
70049;SDS011;57391;51.306;22.680;2023-04-03T14:36:44;7.00;;;2.10;;
70049;SDS011;57391;51.306;22.680;2023-04-03T14:39:18;10.20;;;3.40;;
70049;SDS011;57391;51.306;22.680;2023-04-03T14:41:46;6.70;;;2.30;;
70049;SDS011;57391;51.306;22.680;2023-04-03T14:44:14;5.70;;;2.20;;
70049;SDS011;57391;51.306;22.680;2023-04-03T14:46:43;5.50;;;2.20;;
70049;SDS011;57391;51.306;22.680;2023-04-03T14:49:19;3.90;;;1.80;;
70049;SDS011;57391;51.306;22.680;2023-04-03T14:51:53;6.40;;;2.50;;
70049;SDS011;57391;51.306;22.680;2023-04-03T14:54:22;3.60;;;1.50;;
70049;SDS011;57391;51.306;22.680;2023-04-03T14:56:55;2.80;;;1.50;;
70049;SDS011;57391;51.306;22.680;2023-04-03T14:59:30;4.50;;;1.50;;
70049;SDS011;57391;51.306;22.680;2023-04-03T15:01:58;3.20;;;1.30;;
70049;SDS011;57391;51.306;22.680;2023-04-03T15:04:26;3.20;;;1.30;;
70049;SDS011;57391;51.306;22.680;2023-04-03T15:07:08;4.10;;;1.50;;
70049;SDS011;57391;51.306;22.680;2023-04-03T15:09:35;6.20;;;1.90;;
70049;SDS011;57391;51.306;22.680;2023-04-03T15:12:08;4.30;;;1.60;;
70049;SDS011;57391;51.306;22.680;2023-04-03T15:14:39;3.20;;;1.40;;
70049;SDS011;57391;51.306;22.680;2023-04-03T15:17:21;2.60;;;1.50;;
70049;SDS011;57391;51.306;22.680;2023-04-03T15:19:50;3.20;;;1.40;;
70049;SDS011;57391;51.306;22.680;2023-04-03T15:22:19;3.80;;;1.80;;
70049;SDS011;57391;51.306;22.680;2023-04-03T15:24:47;5.30;;;1.80;;
70049;SDS011;57391;51.306;22.680;2023-04-03T15:27:14;4.80;;;1.80;;
70049;SDS011;57391;51.306;22.680;2023-04-03T15:29:43;4.10;;;1.80;;
70049;SDS011;57391;51.306;22.680;2023-04-03T15:32:12;2.80;;;1.50;;
70049;SDS011;57391;51.306;22.680;2023-04-03T15:34:40;3.50;;;1.70;;
70049;SDS011;57391;51.306;22.680;2023-04-03T15:37:07;7.50;;;2.60;;
70049;SDS011;57391;51.306;22.680;2023-04-03T15:39:35;7.20;;;2.40;;
70049;SDS011;57391;51.306;22.680;2023-04-03T15:42:05;6.80;;;2.40;;
70049;SDS011;57391;51.306;22.680;2023-04-03T15:44:33;6.00;;;1.70;;
70049;SDS011;57391;51.306;22.680;2023-04-03T15:47:04;7.40;;;2.60;;
70049;SDS011;57391;51.306;22.680;2023-04-03T15:49:35;5.70;;;2.50;;
70049;SDS011;57391;51.306;22.680;2023-04-03T15:52:08;7.50;;;2.70;;
70049;SDS011;57391;51.306;22.680;2023-04-03T15:54:39;7.50;;;2.70;;
70049;SDS011;57391;51.306;22.680;2023-04-03T15:57:06;7.40;;;3.20;;
70049;SDS011;57391;51.306;22.680;2023-04-03T15:59:34;18.90;;;6.90;;
70049;SDS011;57391;51.306;22.680;2023-04-03T16:02:04;14.50;;;5.10;;
70049;SDS011;57391;51.306;22.680;2023-04-03T16:04:34;10.10;;;3.60;;
70049;SDS011;57391;51.306;22.680;2023-04-03T16:07:06;46.20;;;13.90;;
70049;SDS011;57391;51.306;22.680;2023-04-03T16:09:35;11.90;;;3.70;;
70049;SDS011;57391;51.306;22.680;2023-04-03T16:12:03;20.20;;;7.50;;
70049;SDS011;57391;51.306;22.680;2023-04-03T16:14:30;13.70;;;4.90;;
70049;SDS011;57391;51.306;22.680;2023-04-03T16:16:58;8.10;;;3.10;;
70049;SDS011;57391;51.306;22.680;2023-04-03T16:19:26;5.40;;;2.30;;
70049;SDS011;57391;51.306;22.680;2023-04-03T16:21:54;5.20;;;2.00;;
70049;SDS011;57391;51.306;22.680;2023-04-03T16:24:22;7.20;;;2.20;;
70049;SDS011;57391;51.306;22.680;2023-04-03T16:26:49;8.80;;;2.50;;
70049;SDS011;57391;51.306;22.680;2023-04-03T16:29:17;7.60;;;2.50;;
70049;SDS011;57391;51.306;22.680;2023-04-03T16:31:44;5.40;;;2.20;;
70049;SDS011;57391;51.306;22.680;2023-04-03T16:34:12;5.20;;;1.90;;
70049;SDS011;57391;51.306;22.680;2023-04-03T16:36:40;6.20;;;2.00;;
70049;SDS011;57391;51.306;22.680;2023-04-03T16:39:07;4.10;;;1.60;;
70049;SDS011;57391;51.306;22.680;2023-04-03T16:41:37;5.90;;;1.80;;
70049;SDS011;57391;51.306;22.680;2023-04-03T16:44:04;4.60;;;1.70;;
70049;SDS011;57391;51.306;22.680;2023-04-03T16:46:34;4.30;;;1.50;;
70049;SDS011;57391;51.306;22.680;2023-04-03T16:49:03;6.40;;;1.90;;
70049;SDS011;57391;51.306;22.680;2023-04-03T16:51:44;4.90;;;1.90;;